sensor_id;sensor_type;location;lat;lon;timestamp;P1;durP1;ratioP1;P2;durP2;ratioP2
49590;SDS011;35496;-21.974;-46.800;2022-12-15T00:02:06;8.13;;;2.30;;
49590;SDS011;35496;-21.974;-46.800;2022-12-15T00:04:51;6.65;;;2.88;;
49590;SDS011;35496;-21.974;-46.800;2022-12-15T00:07:35;2.90;;;2.63;;
49590;SDS011;35496;-21.974;-46.800;2022-12-15T00:10:20;4.70;;;3.22;;
49590;SDS011;35496;-21.974;-46.800;2022-12-15T00:13:13;7.07;;;2.75;;
49590;SDS011;35496;-21.974;-46.800;2022-12-15T00:15:57;12.13;;;2.72;;
49590;SDS011;35496;-21.974;-46.800;2022-12-15T00:18:42;6.78;;;2.30;;
49590;SDS011;35496;-21.974;-46.800;2022-12-15T00:21:25;5.22;;;2.42;;
49590;SDS011;35496;-21.974;-46.800;2022-12-15T00:24:10;6.15;;;2.25;;
49590;SDS011;35496;-21.974;-46.800;2022-12-15T00:26:55;6.57;;;2.35;;
49590;SDS011;35496;-21.974;-46.800;2022-12-15T00:29:39;3.42;;;1.73;;
49590;SDS011;35496;-21.974;-46.800;2022-12-15T00:32:23;4.82;;;2.17;;
49590;SDS011;35496;-21.974;-46.800;2022-12-15T00:35:07;3.08;;;2.17;;
49590;SDS011;35496;-21.974;-46.800;2022-12-15T00:37:52;3.75;;;1.92;;
49590;SDS011;35496;-21.974;-46.800;2022-12-15T00:40:36;1.95;;;1.75;;
49590;SDS011;35496;-21.974;-46.800;2022-12-15T00:43:02;4.60;;;2.65;;
49590;SDS011;35496;-21.974;-46.800;2022-12-15T00:45:29;10.20;;;2.90;;
49590;SDS011;35496;-21.974;-46.800;2022-12-15T00:48:17;3.42;;;2.38;;
49590;SDS011;35496;-21.974;-46.800;2022-12-15T00:50:43;3.80;;;2.42;;
49590;SDS011;35496;-21.974;-46.800;2022-12-15T00:53:19;13.02;;;2.58;;
49590;SDS011;35496;-21.974;-46.800;2022-12-15T00:56:04;4.95;;;2.63;;
49590;SDS011;35496;-21.974;-46.800;2022-12-15T00:58:49;3.25;;;2.08;;
49590;SDS011;35496;-21.974;-46.800;2022-12-15T01:01:33;6.55;;;2.80;;
49590;SDS011;35496;-21.974;-46.800;2022-12-15T01:04:18;5.25;;;2.42;;
49590;SDS011;35496;-21.974;-46.800;2022-12-15T01:07:02;7.20;;;3.17;;
49590;SDS011;35496;-21.974;-46.800;2022-12-15T01:09:47;4.05;;;2.22;;
49590;SDS011;35496;-21.974;-46.800;2022-12-15T01:12:31;5.75;;;2.40;;
49590;SDS011;35496;-21.974;-46.800;2022-12-15T01:15:16;3.33;;;2.40;;
49590;SDS011;35496;-21.974;-46.800;2022-12-15T01:18:00;6.47;;;2.80;;
49590;SDS011;35496;-21.974;-46.800;2022-12-15T01:20:53;11.20;;;3.17;;
49590;SDS011;35496;-21.974;-46.800;2022-12-15T01:23:19;5.57;;;2.90;;
49590;SDS011;35496;-21.974;-46.800;2022-12-15T01:25:45;7.38;;;2.75;;
49590;SDS011;35496;-21.974;-46.800;2022-12-15T01:28:11;6.85;;;2.97;;
49590;SDS011;35496;-21.974;-46.800;2022-12-15T01:30:37;3.88;;;2.38;;
49590;SDS011;35496;-21.974;-46.800;2022-12-15T01:33:03;4.25;;;3.40;;
49590;SDS011;35496;-21.974;-46.800;2022-12-15T01:35:29;6.72;;;2.55;;
49590;SDS011;35496;-21.974;-46.800;2022-12-15T01:37:55;5.00;;;3.05;;
49590;SDS011;35496;-21.974;-46.800;2022-12-15T01:40:21;8.30;;;3.78;;
49590;SDS011;35496;-21.974;-46.800;2022-12-15T01:43:13;6.15;;;2.88;;
49590;SDS011;35496;-21.974;-46.800;2022-12-15T01:45:43;8.18;;;3.83;;
49590;SDS011;35496;-21.974;-46.800;2022-12-15T01:48:12;3.60;;;1.85;;
49590;SDS011;35496;-21.974;-46.800;2022-12-15T01:50:40;9.07;;;4.25;;
49590;SDS011;35496;-21.974;-46.800;2022-12-15T01:53:07;6.28;;;3.00;;
49590;SDS011;35496;-21.974;-46.800;2022-12-15T01:55:37;6.65;;;3.40;;
49590;SDS011;35496;-21.974;-46.800;2022-12-15T01:58:06;6.72;;;3.53;;
49590;SDS011;35496;-21.974;-46.800;2022-12-15T02:00:34;5.97;;;3.28;;
49590;SDS011;35496;-21.974;-46.800;2022-12-15T02:03:00;10.32;;;4.35;;
49590;SDS011;35496;-21.974;-46.800;2022-12-15T02:05:27;15.43;;;8.75;;
49590;SDS011;35496;-21.974;-46.800;2022-12-15T02:07:55;9.20;;;6.18;;
49590;SDS011;35496;-21.974;-46.800;2022-12-15T02:10:21;8.18;;;4.25;;
49590;SDS011;35496;-21.974;-46.800;2022-12-15T02:13:02;12.38;;;3.40;;
49590;SDS011;35496;-21.974;-46.800;2022-12-15T02:15:49;5.70;;;3.40;;
49590;SDS011;35496;-21.974;-46.800;2022-12-15T02:18:37;6.25;;;3.83;;
49590;SDS011;35496;-21.974;-46.800;2022-12-15T02:21:50;3.38;;;3.03;;
49590;SDS011;35496;-21.974;-46.800;2022-12-15T02:24:14;5.65;;;2.08;;
49590;SDS011;35496;-21.974;-46.800;2022-12-15T02:26:58;3.08;;;2.47;;
49590;SDS011;35496;-21.974;-46.800;2022-12-15T02:35:01;6.32;;;2.50;;
49590;SDS011;35496;-21.974;-46.800;2022-12-15T02:37:34;5.53;;;3.00;;
49590;SDS011;35496;-21.974;-46.800;2022-12-15T02:40:01;8.48;;;2.70;;
49590;SDS011;35496;-21.974;-46.800;2022-12-15T02:42:27;3.08;;;2.47;;
49590;SDS011;35496;-21.974;-46.800;2022-12-15T02:44:57;5.38;;;2.05;;
49590;SDS011;35496;-21.974;-46.800;2022-12-15T02:47:42;3.97;;;1.90;;
49590;SDS011;35496;-21.974;-46.800;2022-12-15T02:55:49;5.28;;;1.95;;
49590;SDS011;35496;-21.974;-46.800;2022-12-15T03:00:46;5.63;;;2.58;;
49590;SDS011;35496;-21.974;-46.800;2022-12-15T03:03:15;1.30;;;1.20;;
49590;SDS011;35496;-21.974;-46.800;2022-12-15T03:05:48;5.32;;;2.10;;
49590;SDS011;35496;-21.974;-46.800;2022-12-15T03:08:17;5.25;;;2.50;;
49590;SDS011;35496;-21.974;-46.800;2022-12-15T03:10:45;6.88;;;2.67;;
49590;SDS011;35496;-21.974;-46.800;2022-12-15T03:13:12;6.60;;;1.60;;
49590;SDS011;35496;-21.974;-46.800;2022-12-15T03:15:38;3.30;;;1.10;;
49590;SDS011;35496;-21.974;-46.800;2022-12-15T03:18:04;1.90;;;1.58;;
49590;SDS011;35496;-21.974;-46.800;2022-12-15T03:20:30;3.47;;;2.17;;
49590;SDS011;35496;-21.974;-46.800;2022-12-15T03:22:56;2.97;;;1.75;;
49590;SDS011;35496;-21.974;-46.800;2022-12-15T03:25:22;5.38;;;2.97;;
49590;SDS011;35496;-21.974;-46.800;2022-12-15T03:27:48;5.93;;;1.40;;
49590;SDS011;35496;-21.974;-46.800;2022-12-15T03:30:15;5.05;;;2.22;;
49590;SDS011;35496;-21.974;-46.800;2022-12-15T03:32:41;5.78;;;1.52;;
49590;SDS011;35496;-21.974;-46.800;2022-12-15T03:35:07;8.98;;;1.88;;
49590;SDS011;35496;-21.974;-46.800;2022-12-15T03:37:33;3.42;;;1.80;;
49590;SDS011;35496;-21.974;-46.800;2022-12-15T03:39:59;5.47;;;2.78;;
49590;SDS011;35496;-21.974;-46.800;2022-12-15T03:42:25;3.35;;;2.08;;
49590;SDS011;35496;-21.974;-46.800;2022-12-15T03:45:09;4.38;;;2.30;;
49590;SDS011;35496;-21.974;-46.800;2022-12-15T03:47:39;5.57;;;2.45;;
49590;SDS011;35496;-21.974;-46.800;2022-12-15T03:50:05;6.25;;;1.60;;
49590;SDS011;35496;-21.974;-46.800;2022-12-15T03:52:31;3.30;;;2.05;;
49590;SDS011;35496;-21.974;-46.800;2022-12-15T03:54:57;3.85;;;2.53;;
49590;SDS011;35496;-21.974;-46.800;2022-12-15T03:57:23;3.20;;;1.98;;
49590;SDS011;35496;-21.974;-46.800;2022-12-15T03:59:49;5.18;;;2.05;;
49590;SDS011;35496;-21.974;-46.800;2022-12-15T04:02:15;3.17;;;2.13;;
49590;SDS011;35496;-21.974;-46.800;2022-12-15T04:04:42;4.60;;;1.52;;
49590;SDS011;35496;-21.974;-46.800;2022-12-15T04:07:08;3.08;;;1.90;;
49590;SDS011;35496;-21.974;-46.800;2022-12-15T04:09:34;1.85;;;1.67;;
49590;SDS011;35496;-21.974;-46.800;2022-12-15T04:12:00;3.83;;;1.33;;
49590;SDS011;35496;-21.974;-46.800;2022-12-15T04:14:31;7.00;;;2.33;;
49590;SDS011;35496;-21.974;-46.800;2022-12-15T04:16:57;6.95;;;1.60;;
49590;SDS011;35496;-21.974;-46.800;2022-12-15T04:19:23;5.28;;;2.17;;
49590;SDS011;35496;-21.974;-46.800;2022-12-15T04:22:08;4.63;;;1.83;;
49590;SDS011;35496;-21.974;-46.800;2022-12-15T04:24:34;3.17;;;1.65;;
49590;SDS011;35496;-21.974;-46.800;2022-12-15T04:27:18;2.65;;;1.83;;
49590;SDS011;35496;-21.974;-46.800;2022-12-15T04:30:03;4.15;;;1.85;;
49590;SDS011;35496;-21.974;-46.800;2022-12-15T04:32:47;2.42;;;1.80;;
49590;SDS011;35496;-21.974;-46.800;2022-12-15T04:35:32;4.18;;;1.80;;
49590;SDS011;35496;-21.974;-46.800;2022-12-15T04:38:18;3.35;;;1.80;;
49590;SDS011;35496;-21.974;-46.800;2022-12-15T04:41:03;9.25;;;2.15;;
49590;SDS011;35496;-21.974;-46.800;2022-12-15T04:43:47;6.57;;;2.65;;
49590;SDS011;35496;-21.974;-46.800;2022-12-15T04:46:31;2.38;;;1.88;;
49590;SDS011;35496;-21.974;-46.800;2022-12-15T04:49:16;6.63;;;2.53;;
49590;SDS011;35496;-21.974;-46.800;2022-12-15T04:52:00;4.78;;;2.63;;
49590;SDS011;35496;-21.974;-46.800;2022-12-15T04:54:44;3.72;;;2.75;;
49590;SDS011;35496;-21.974;-46.800;2022-12-15T04:57:28;3.20;;;2.42;;
49590;SDS011;35496;-21.974;-46.800;2022-12-15T05:00:14;9.38;;;2.78;;
49590;SDS011;35496;-21.974;-46.800;2022-12-15T05:03:07;3.10;;;2.80;;
49590;SDS011;35496;-21.974;-46.800;2022-12-15T05:05:51;11.38;;;3.40;;
49590;SDS011;35496;-21.974;-46.800;2022-12-15T05:08:36;7.28;;;2.53;;
49590;SDS011;35496;-21.974;-46.800;2022-12-15T05:11:20;10.40;;;3.42;;
49590;SDS011;35496;-21.974;-46.800;2022-12-15T05:14:04;5.95;;;3.17;;
49590;SDS011;35496;-21.974;-46.800;2022-12-15T05:16:49;6.15;;;2.47;;
49590;SDS011;35496;-21.974;-46.800;2022-12-15T05:19:33;14.13;;;4.07;;
49590;SDS011;35496;-21.974;-46.800;2022-12-15T05:22:18;9.07;;;2.50;;
49590;SDS011;35496;-21.974;-46.800;2022-12-15T05:25:02;5.72;;;3.35;;
49590;SDS011;35496;-21.974;-46.800;2022-12-15T05:27:47;4.82;;;2.95;;
49590;SDS011;35496;-21.974;-46.800;2022-12-15T05:30:31;6.85;;;3.63;;
49590;SDS011;35496;-21.974;-46.800;2022-12-15T05:33:15;3.30;;;3.00;;
49590;SDS011;35496;-21.974;-46.800;2022-12-15T05:35:41;7.75;;;3.92;;
49590;SDS011;35496;-21.974;-46.800;2022-12-15T05:38:07;4.97;;;3.30;;
49590;SDS011;35496;-21.974;-46.800;2022-12-15T05:40:33;4.57;;;3.15;;
49590;SDS011;35496;-21.974;-46.800;2022-12-15T05:42:59;7.78;;;3.10;;
49590;SDS011;35496;-21.974;-46.800;2022-12-15T05:45:26;3.85;;;3.30;;
49590;SDS011;35496;-21.974;-46.800;2022-12-15T05:47:52;8.05;;;3.58;;
49590;SDS011;35496;-21.974;-46.800;2022-12-15T05:50:19;6.03;;;3.53;;
49590;SDS011;35496;-21.974;-46.800;2022-12-15T05:52:46;4.35;;;2.90;;
49590;SDS011;35496;-21.974;-46.800;2022-12-15T05:55:14;4.70;;;4.13;;
49590;SDS011;35496;-21.974;-46.800;2022-12-15T05:57:41;6.53;;;4.03;;
49590;SDS011;35496;-21.974;-46.800;2022-12-15T06:00:07;4.13;;;3.45;;
49590;SDS011;35496;-21.974;-46.800;2022-12-15T06:02:33;5.85;;;4.20;;
49590;SDS011;35496;-21.974;-46.800;2022-12-15T06:04:59;5.93;;;3.83;;
49590;SDS011;35496;-21.974;-46.800;2022-12-15T06:07:26;5.93;;;3.38;;
49590;SDS011;35496;-21.974;-46.800;2022-12-15T06:09:52;18.75;;;4.90;;
49590;SDS011;35496;-21.974;-46.800;2022-12-15T06:12:18;14.82;;;4.00;;
49590;SDS011;35496;-21.974;-46.800;2022-12-15T06:14:44;13.85;;;5.45;;
49590;SDS011;35496;-21.974;-46.800;2022-12-15T06:17:10;6.75;;;4.68;;
49590;SDS011;35496;-21.974;-46.800;2022-12-15T06:19:37;8.95;;;4.43;;
49590;SDS011;35496;-21.974;-46.800;2022-12-15T06:22:03;6.97;;;4.30;;
49590;SDS011;35496;-21.974;-46.800;2022-12-15T06:24:29;10.90;;;4.70;;
49590;SDS011;35496;-21.974;-46.800;2022-12-15T06:26:55;6.72;;;3.67;;
49590;SDS011;35496;-21.974;-46.800;2022-12-15T06:29:22;9.98;;;4.43;;
49590;SDS011;35496;-21.974;-46.800;2022-12-15T06:31:48;9.15;;;5.68;;
49590;SDS011;35496;-21.974;-46.800;2022-12-15T06:34:14;9.70;;;4.53;;
49590;SDS011;35496;-21.974;-46.800;2022-12-15T06:36:41;8.98;;;6.60;;
49590;SDS011;35496;-21.974;-46.800;2022-12-15T06:39:10;6.60;;;4.32;;
49590;SDS011;35496;-21.974;-46.800;2022-12-15T06:41:37;9.77;;;5.32;;
49590;SDS011;35496;-21.974;-46.800;2022-12-15T06:44:03;13.65;;;5.50;;
49590;SDS011;35496;-21.974;-46.800;2022-12-15T06:46:30;8.80;;;4.57;;
49590;SDS011;35496;-21.974;-46.800;2022-12-15T06:48:57;6.63;;;4.40;;
49590;SDS011;35496;-21.974;-46.800;2022-12-15T06:51:24;8.57;;;5.88;;
49590;SDS011;35496;-21.974;-46.800;2022-12-15T06:53:50;11.73;;;5.20;;
49590;SDS011;35496;-21.974;-46.800;2022-12-15T06:56:21;9.02;;;4.68;;
49590;SDS011;35496;-21.974;-46.800;2022-12-15T06:58:48;19.58;;;5.78;;
49590;SDS011;35496;-21.974;-46.800;2022-12-15T07:01:14;11.57;;;4.47;;
49590;SDS011;35496;-21.974;-46.800;2022-12-15T07:03:41;16.48;;;5.10;;
49590;SDS011;35496;-21.974;-46.800;2022-12-15T07:06:08;9.18;;;5.15;;
49590;SDS011;35496;-21.974;-46.800;2022-12-15T07:08:35;7.97;;;5.07;;
49590;SDS011;35496;-21.974;-46.800;2022-12-15T07:11:02;7.70;;;5.28;;
49590;SDS011;35496;-21.974;-46.800;2022-12-15T07:13:28;11.98;;;5.85;;
49590;SDS011;35496;-21.974;-46.800;2022-12-15T07:15:57;8.05;;;4.95;;
49590;SDS011;35496;-21.974;-46.800;2022-12-15T07:18:23;8.88;;;4.65;;
49590;SDS011;35496;-21.974;-46.800;2022-12-15T07:20:50;6.82;;;4.50;;
49590;SDS011;35496;-21.974;-46.800;2022-12-15T07:23:16;17.42;;;4.97;;
49590;SDS011;35496;-21.974;-46.800;2022-12-15T07:25:42;8.27;;;5.47;;
49590;SDS011;35496;-21.974;-46.800;2022-12-15T07:28:08;6.18;;;4.90;;
49590;SDS011;35496;-21.974;-46.800;2022-12-15T07:30:36;10.77;;;4.63;;
49590;SDS011;35496;-21.974;-46.800;2022-12-15T07:33:02;12.52;;;6.50;;
49590;SDS011;35496;-21.974;-46.800;2022-12-15T07:35:28;8.95;;;5.28;;
49590;SDS011;35496;-21.974;-46.800;2022-12-15T07:37:55;8.85;;;5.18;;
49590;SDS011;35496;-21.974;-46.800;2022-12-15T07:40:21;8.02;;;5.03;;
49590;SDS011;35496;-21.974;-46.800;2022-12-15T07:42:47;10.95;;;5.13;;
49590;SDS011;35496;-21.974;-46.800;2022-12-15T07:45:13;9.88;;;4.78;;
49590;SDS011;35496;-21.974;-46.800;2022-12-15T07:47:39;10.10;;;4.68;;
49590;SDS011;35496;-21.974;-46.800;2022-12-15T07:50:05;10.23;;;5.55;;
49590;SDS011;35496;-21.974;-46.800;2022-12-15T07:52:32;6.80;;;3.90;;
49590;SDS011;35496;-21.974;-46.800;2022-12-15T07:54:58;6.35;;;4.97;;
49590;SDS011;35496;-21.974;-46.800;2022-12-15T07:57:25;5.35;;;4.07;;
49590;SDS011;35496;-21.974;-46.800;2022-12-15T07:59:51;10.52;;;5.15;;
49590;SDS011;35496;-21.974;-46.800;2022-12-15T08:02:17;7.97;;;5.13;;
49590;SDS011;35496;-21.974;-46.800;2022-12-15T08:04:43;6.47;;;5.38;;
49590;SDS011;35496;-21.974;-46.800;2022-12-15T08:07:09;11.00;;;6.43;;
49590;SDS011;35496;-21.974;-46.800;2022-12-15T08:09:36;13.90;;;6.63;;
49590;SDS011;35496;-21.974;-46.800;2022-12-15T08:12:02;11.73;;;5.18;;
49590;SDS011;35496;-21.974;-46.800;2022-12-15T08:14:28;11.95;;;4.80;;
49590;SDS011;35496;-21.974;-46.800;2022-12-15T08:16:54;15.38;;;5.55;;
49590;SDS011;35496;-21.974;-46.800;2022-12-15T08:19:20;8.80;;;5.38;;
49590;SDS011;35496;-21.974;-46.800;2022-12-15T08:21:46;10.85;;;4.35;;
49590;SDS011;35496;-21.974;-46.800;2022-12-15T08:24:13;8.98;;;4.47;;
49590;SDS011;35496;-21.974;-46.800;2022-12-15T08:26:40;7.60;;;5.38;;
49590;SDS011;35496;-21.974;-46.800;2022-12-15T08:29:07;5.72;;;5.15;;
49590;SDS011;35496;-21.974;-46.800;2022-12-15T08:31:33;7.32;;;4.78;;
49590;SDS011;35496;-21.974;-46.800;2022-12-15T08:34:00;10.57;;;5.70;;
49590;SDS011;35496;-21.974;-46.800;2022-12-15T08:36:26;9.90;;;5.65;;
49590;SDS011;35496;-21.974;-46.800;2022-12-15T08:38:54;9.85;;;4.90;;
49590;SDS011;35496;-21.974;-46.800;2022-12-15T08:41:22;5.80;;;5.30;;
49590;SDS011;35496;-21.974;-46.800;2022-12-15T08:43:49;9.98;;;5.78;;
49590;SDS011;35496;-21.974;-46.800;2022-12-15T08:46:16;11.98;;;4.60;;
49590;SDS011;35496;-21.974;-46.800;2022-12-15T08:48:42;10.25;;;5.03;;
49590;SDS011;35496;-21.974;-46.800;2022-12-15T08:51:09;11.13;;;6.13;;
49590;SDS011;35496;-21.974;-46.800;2022-12-15T08:53:35;6.30;;;4.20;;
49590;SDS011;35496;-21.974;-46.800;2022-12-15T08:56:08;9.07;;;4.85;;
49590;SDS011;35496;-21.974;-46.800;2022-12-15T08:58:35;9.75;;;4.65;;
49590;SDS011;35496;-21.974;-46.800;2022-12-15T09:01:01;10.00;;;5.82;;
49590;SDS011;35496;-21.974;-46.800;2022-12-15T09:03:27;10.38;;;4.40;;
49590;SDS011;35496;-21.974;-46.800;2022-12-15T09:05:54;6.43;;;4.13;;
49590;SDS011;35496;-21.974;-46.800;2022-12-15T09:08:22;5.95;;;5.32;;
49590;SDS011;35496;-21.974;-46.800;2022-12-15T09:10:48;11.95;;;4.90;;
49590;SDS011;35496;-21.974;-46.800;2022-12-15T09:13:15;13.13;;;3.78;;
49590;SDS011;35496;-21.974;-46.800;2022-12-15T09:15:41;4.13;;;2.72;;
49590;SDS011;35496;-21.974;-46.800;2022-12-15T09:18:10;5.90;;;3.22;;
49590;SDS011;35496;-21.974;-46.800;2022-12-15T09:20:36;7.88;;;3.28;;
49590;SDS011;35496;-21.974;-46.800;2022-12-15T09:23:02;17.30;;;4.85;;
49590;SDS011;35496;-21.974;-46.800;2022-12-15T09:25:28;6.00;;;2.83;;
49590;SDS011;35496;-21.974;-46.800;2022-12-15T09:27:54;4.22;;;3.80;;
49590;SDS011;35496;-21.974;-46.800;2022-12-15T09:30:21;8.38;;;3.28;;
49590;SDS011;35496;-21.974;-46.800;2022-12-15T09:32:47;8.55;;;2.40;;
49590;SDS011;35496;-21.974;-46.800;2022-12-15T09:35:13;6.38;;;3.08;;
49590;SDS011;35496;-21.974;-46.800;2022-12-15T09:37:41;6.30;;;3.20;;
49590;SDS011;35496;-21.974;-46.800;2022-12-15T09:40:08;10.65;;;3.42;;
49590;SDS011;35496;-21.974;-46.800;2022-12-15T09:42:36;8.23;;;3.20;;
49590;SDS011;35496;-21.974;-46.800;2022-12-15T09:45:05;4.32;;;3.17;;
49590;SDS011;35496;-21.974;-46.800;2022-12-15T09:47:38;3.72;;;2.33;;
49590;SDS011;35496;-21.974;-46.800;2022-12-15T09:50:11;9.95;;;3.88;;
49590;SDS011;35496;-21.974;-46.800;2022-12-15T09:55:14;7.82;;;3.58;;
49590;SDS011;35496;-21.974;-46.800;2022-12-15T09:57:51;9.05;;;4.05;;
49590;SDS011;35496;-21.974;-46.800;2022-12-15T10:03:00;4.18;;;2.58;;
49590;SDS011;35496;-21.974;-46.800;2022-12-15T10:08:01;5.20;;;2.15;;
49590;SDS011;35496;-21.974;-46.800;2022-12-15T10:10:38;7.28;;;2.40;;
49590;SDS011;35496;-21.974;-46.800;2022-12-15T10:16:13;4.28;;;2.13;;
49590;SDS011;35496;-21.974;-46.800;2022-12-15T10:18:48;6.40;;;2.03;;
49590;SDS011;35496;-21.974;-46.800;2022-12-15T10:21:15;2.67;;;2.47;;
49590;SDS011;35496;-21.974;-46.800;2022-12-15T10:23:41;4.13;;;1.73;;
49590;SDS011;35496;-21.974;-46.800;2022-12-15T10:26:29;2.28;;;1.92;;
49590;SDS011;35496;-21.974;-46.800;2022-12-15T10:31:41;2.63;;;1.47;;
49590;SDS011;35496;-21.974;-46.800;2022-12-15T10:34:15;4.13;;;2.53;;
49590;SDS011;35496;-21.974;-46.800;2022-12-15T10:36:48;5.68;;;2.20;;
49590;SDS011;35496;-21.974;-46.800;2022-12-15T10:39:15;5.18;;;2.10;;
49590;SDS011;35496;-21.974;-46.800;2022-12-15T10:41:41;4.72;;;2.53;;
49590;SDS011;35496;-21.974;-46.800;2022-12-15T10:44:22;4.22;;;1.85;;
49590;SDS011;35496;-21.974;-46.800;2022-12-15T10:46:53;3.28;;;1.60;;
49590;SDS011;35496;-21.974;-46.800;2022-12-15T10:49:21;2.37;;;2.13;;
49590;SDS011;35496;-21.974;-46.800;2022-12-15T10:51:54;2.78;;;1.83;;
49590;SDS011;35496;-21.974;-46.800;2022-12-15T10:54:21;5.43;;;2.13;;
49590;SDS011;35496;-21.974;-46.800;2022-12-15T10:56:52;4.82;;;2.22;;
49590;SDS011;35496;-21.974;-46.800;2022-12-15T11:01:48;3.67;;;1.38;;
49590;SDS011;35496;-21.974;-46.800;2022-12-15T11:04:27;3.63;;;1.98;;
49590;SDS011;35496;-21.974;-46.800;2022-12-15T11:06:57;2.63;;;1.83;;
49590;SDS011;35496;-21.974;-46.800;2022-12-15T11:09:33;2.53;;;1.80;;
49590;SDS011;35496;-21.974;-46.800;2022-12-15T11:12:00;1.80;;;1.52;;
49590;SDS011;35496;-21.974;-46.800;2022-12-15T11:14:46;7.85;;;1.95;;
49590;SDS011;35496;-21.974;-46.800;2022-12-15T11:17:19;4.90;;;2.38;;
49590;SDS011;35496;-21.974;-46.800;2022-12-15T11:22:15;7.00;;;1.83;;
49590;SDS011;35496;-21.974;-46.800;2022-12-15T11:27:43;2.35;;;1.73;;
49590;SDS011;35496;-21.974;-46.800;2022-12-15T11:30:16;3.13;;;1.73;;
49590;SDS011;35496;-21.974;-46.800;2022-12-15T11:32:44;1.67;;;1.58;;
49590;SDS011;35496;-21.974;-46.800;2022-12-15T11:35:16;5.45;;;2.30;;
49590;SDS011;35496;-21.974;-46.800;2022-12-15T11:47:54;1.33;;;1.23;;
49590;SDS011;35496;-21.974;-46.800;2022-12-15T11:53:17;4.43;;;2.10;;
49590;SDS011;35496;-21.974;-46.800;2022-12-15T12:03:39;2.25;;;1.45;;
49590;SDS011;35496;-21.974;-46.800;2022-12-15T12:06:21;1.45;;;1.10;;
49590;SDS011;35496;-21.974;-46.800;2022-12-15T12:11:50;5.90;;;1.55;;
49590;SDS011;35496;-21.974;-46.800;2022-12-15T12:14:35;4.40;;;2.03;;
49590;SDS011;35496;-21.974;-46.800;2022-12-15T12:17:09;3.78;;;1.92;;
49590;SDS011;35496;-21.974;-46.800;2022-12-15T12:19:47;2.85;;;1.67;;
49590;SDS011;35496;-21.974;-46.800;2022-12-15T12:22:31;4.18;;;2.13;;
49590;SDS011;35496;-21.974;-46.800;2022-12-15T12:25:20;2.78;;;1.52;;
49590;SDS011;35496;-21.974;-46.800;2022-12-15T12:32:58;3.22;;;1.27;;
49590;SDS011;35496;-21.974;-46.800;2022-12-15T12:35:39;4.25;;;1.25;;
49590;SDS011;35496;-21.974;-46.800;2022-12-15T12:38:10;1.58;;;1.23;;
49590;SDS011;35496;-21.974;-46.800;2022-12-15T12:43:09;3.05;;;1.10;;
49590;SDS011;35496;-21.974;-46.800;2022-12-15T12:50:50;1.65;;;1.23;;
49590;SDS011;35496;-21.974;-46.800;2022-12-15T12:53:32;4.68;;;2.78;;
49590;SDS011;35496;-21.974;-46.800;2022-12-15T12:55:59;2.00;;;0.98;;
49590;SDS011;35496;-21.974;-46.800;2022-12-15T12:58:38;5.90;;;1.40;;
49590;SDS011;35496;-21.974;-46.800;2022-12-15T13:01:29;3.08;;;2.17;;
49590;SDS011;35496;-21.974;-46.800;2022-12-15T13:14:56;3.20;;;1.75;;
49590;SDS011;35496;-21.974;-46.800;2022-12-15T13:17:09;1.98;;;1.63;;
49590;SDS011;35496;-21.974;-46.800;2022-12-15T13:20:20;2.38;;;1.70;;
49590;SDS011;35496;-21.974;-46.800;2022-12-15T13:22:32;10.45;;;2.47;;
49590;SDS011;35496;-21.974;-46.800;2022-12-15T13:25:00;3.38;;;1.63;;
49590;SDS011;35496;-21.974;-46.800;2022-12-15T13:27:35;3.72;;;1.60;;
49590;SDS011;35496;-21.974;-46.800;2022-12-15T13:32:32;3.95;;;2.30;;
49590;SDS011;35496;-21.974;-46.800;2022-12-15T13:40:28;3.00;;;1.80;;
49590;SDS011;35496;-21.974;-46.800;2022-12-15T13:43:44;2.80;;;1.90;;
49590;SDS011;35496;-21.974;-46.800;2022-12-15T13:45:48;2.15;;;1.95;;
49590;SDS011;35496;-21.974;-46.800;2022-12-15T13:53:17;3.30;;;1.65;;
49590;SDS011;35496;-21.974;-46.800;2022-12-15T13:55:50;5.15;;;1.88;;
49590;SDS011;35496;-21.974;-46.800;2022-12-15T13:58:17;3.25;;;1.58;;
49590;SDS011;35496;-21.974;-46.800;2022-12-15T14:00:55;1.70;;;1.50;;
49590;SDS011;35496;-21.974;-46.800;2022-12-15T14:03:21;2.10;;;1.00;;
49590;SDS011;35496;-21.974;-46.800;2022-12-15T14:05:49;3.28;;;1.80;;
49590;SDS011;35496;-21.974;-46.800;2022-12-15T14:08:15;2.85;;;0.98;;
49590;SDS011;35496;-21.974;-46.800;2022-12-15T14:10:49;1.90;;;1.20;;
49590;SDS011;35496;-21.974;-46.800;2022-12-15T14:13:29;1.33;;;1.20;;
49590;SDS011;35496;-21.974;-46.800;2022-12-15T14:18:31;2.92;;;1.58;;
49590;SDS011;35496;-21.974;-46.800;2022-12-15T14:20:58;2.67;;;0.80;;
49590;SDS011;35496;-21.974;-46.800;2022-12-15T14:23:25;1.25;;;1.13;;
49590;SDS011;35496;-21.974;-46.800;2022-12-15T14:26:00;4.38;;;2.08;;
49590;SDS011;35496;-21.974;-46.800;2022-12-15T14:31:29;2.10;;;1.05;;
49590;SDS011;35496;-21.974;-46.800;2022-12-15T14:34:05;2.05;;;0.80;;
49590;SDS011;35496;-21.974;-46.800;2022-12-15T14:36:32;1.70;;;0.93;;
49590;SDS011;35496;-21.974;-46.800;2022-12-15T14:39:03;1.52;;;1.08;;
49590;SDS011;35496;-21.974;-46.800;2022-12-15T14:41:31;1.23;;;1.15;;
49590;SDS011;35496;-21.974;-46.800;2022-12-15T14:44:05;5.68;;;1.08;;
49590;SDS011;35496;-21.974;-46.800;2022-12-15T14:46:32;1.40;;;1.23;;
49590;SDS011;35496;-21.974;-46.800;2022-12-15T14:48:59;1.05;;;1.00;;
49590;SDS011;35496;-21.974;-46.800;2022-12-15T14:51:27;1.38;;;1.27;;
49590;SDS011;35496;-21.974;-46.800;2022-12-15T14:53:54;1.45;;;0.88;;
49590;SDS011;35496;-21.974;-46.800;2022-12-15T14:58:52;2.40;;;1.13;;
49590;SDS011;35496;-21.974;-46.800;2022-12-15T15:01:24;2.70;;;1.40;;
49590;SDS011;35496;-21.974;-46.800;2022-12-15T15:04:25;2.03;;;1.38;;
49590;SDS011;35496;-21.974;-46.800;2022-12-15T15:06:43;3.00;;;1.30;;
49590;SDS011;35496;-21.974;-46.800;2022-12-15T15:09:31;0.95;;;0.90;;
49590;SDS011;35496;-21.974;-46.800;2022-12-15T15:14:31;2.30;;;1.08;;
49590;SDS011;35496;-21.974;-46.800;2022-12-15T15:17:02;1.23;;;1.17;;
49590;SDS011;35496;-21.974;-46.800;2022-12-15T15:19:29;1.73;;;0.90;;
49590;SDS011;35496;-21.974;-46.800;2022-12-15T15:21:58;1.45;;;0.70;;
49590;SDS011;35496;-21.974;-46.800;2022-12-15T15:24:28;1.50;;;1.02;;
49590;SDS011;35496;-21.974;-46.800;2022-12-15T15:27:16;0.75;;;0.75;;
49590;SDS011;35496;-21.974;-46.800;2022-12-15T15:29:41;3.38;;;1.52;;
49590;SDS011;35496;-21.974;-46.800;2022-12-15T15:32:14;3.38;;;1.15;;
49590;SDS011;35496;-21.974;-46.800;2022-12-15T15:34:41;1.00;;;0.90;;
49590;SDS011;35496;-21.974;-46.800;2022-12-15T15:37:21;0.90;;;0.90;;
49590;SDS011;35496;-21.974;-46.800;2022-12-15T15:39:49;1.17;;;1.08;;
49590;SDS011;35496;-21.974;-46.800;2022-12-15T15:42:15;1.90;;;1.77;;
49590;SDS011;35496;-21.974;-46.800;2022-12-15T15:44:41;1.15;;;0.90;;
49590;SDS011;35496;-21.974;-46.800;2022-12-15T15:47:13;0.93;;;0.90;;
49590;SDS011;35496;-21.974;-46.800;2022-12-15T15:49:41;2.20;;;1.63;;
49590;SDS011;35496;-21.974;-46.800;2022-12-15T15:52:08;1.55;;;1.23;;
49590;SDS011;35496;-21.974;-46.800;2022-12-15T15:54:36;1.90;;;1.02;;
49590;SDS011;35496;-21.974;-46.800;2022-12-15T15:57:03;1.35;;;0.88;;
49590;SDS011;35496;-21.974;-46.800;2022-12-15T15:59:29;1.42;;;0.73;;
49590;SDS011;35496;-21.974;-46.800;2022-12-15T16:01:55;1.45;;;0.60;;
49590;SDS011;35496;-21.974;-46.800;2022-12-15T16:04:23;0.80;;;0.80;;
49590;SDS011;35496;-21.974;-46.800;2022-12-15T16:06:51;0.95;;;0.90;;
49590;SDS011;35496;-21.974;-46.800;2022-12-15T16:09:17;0.85;;;0.85;;
49590;SDS011;35496;-21.974;-46.800;2022-12-15T16:11:44;2.90;;;0.90;;
49590;SDS011;35496;-21.974;-46.800;2022-12-15T16:14:11;1.33;;;0.60;;
49590;SDS011;35496;-21.974;-46.800;2022-12-15T16:16:37;2.72;;;1.50;;
49590;SDS011;35496;-21.974;-46.800;2022-12-15T16:19:03;2.67;;;1.88;;